sensor_id;sensor_type;location;lat;lon;timestamp;pressure;altitude;pressure_sealevel;temperature;humidity
76201;BME280;64981;52.930;9.266;2024-01-30T00:01:13;102500.16;;;4.19;72.70
76201;BME280;64981;52.930;9.266;2024-01-30T00:03:39;102500.06;;;4.03;73.91
76201;BME280;64981;52.930;9.266;2024-01-30T00:06:05;102497.06;;;4.11;73.72
76201;BME280;64981;52.930;9.266;2024-01-30T00:08:30;102498.59;;;4.32;73.02
76201;BME280;64981;52.930;9.266;2024-01-30T00:10:56;102491.81;;;4.28;73.09
76201;BME280;64981;52.930;9.266;2024-01-30T00:13:22;102492.63;;;4.13;73.90
76201;BME280;64981;52.930;9.266;2024-01-30T00:15:48;102490.47;;;4.04;74.18
76201;BME280;64981;52.930;9.266;2024-01-30T00:18:14;102486.91;;;4.22;73.45
76201;BME280;64981;52.930;9.266;2024-01-30T00:20:40;102493.06;;;4.21;73.73
76201;BME280;64981;52.930;9.266;2024-01-30T00:23:06;102490.16;;;4.10;73.66
76201;BME280;64981;52.930;9.266;2024-01-30T00:25:31;102487.53;;;4.10;73.44
76201;BME280;64981;52.930;9.266;2024-01-30T00:27:58;102493.16;;;4.19;73.13
76201;BME280;64981;52.930;9.266;2024-01-30T00:30:24;102482.53;;;4.22;72.19
76201;BME280;64981;52.930;9.266;2024-01-30T00:32:49;102484.34;;;4.20;72.42
76201;BME280;64981;52.930;9.266;2024-01-30T00:35:15;102486.75;;;4.25;72.19
76201;BME280;64981;52.930;9.266;2024-01-30T00:37:40;102489.59;;;4.20;72.65
76201;BME280;64981;52.930;9.266;2024-01-30T00:40:06;102495.88;;;4.33;72.16
76201;BME280;64981;52.930;9.266;2024-01-30T00:42:32;102489.69;;;4.19;72.77
76201;BME280;64981;52.930;9.266;2024-01-30T00:44:58;102488.22;;;4.13;73.73
76201;BME280;64981;52.930;9.266;2024-01-30T00:47:24;102491.16;;;4.07;73.21
76201;BME280;64981;52.930;9.266;2024-01-30T00:49:49;102489.00;;;4.15;72.11
76201;BME280;64981;52.930;9.266;2024-01-30T00:52:15;102495.91;;;4.16;72.56
76201;BME280;64981;52.930;9.266;2024-01-30T00:54:41;102494.00;;;4.03;73.27
76201;BME280;64981;52.930;9.266;2024-01-30T00:57:07;102497.06;;;4.11;73.74
76201;BME280;64981;52.930;9.266;2024-01-30T00:59:33;102494.31;;;4.14;73.02
76201;BME280;64981;52.930;9.266;2024-01-30T01:01:58;102497.38;;;4.05;74.22
76201;BME280;64981;52.930;9.266;2024-01-30T01:04:24;102488.75;;;4.03;74.94
76201;BME280;64981;52.930;9.266;2024-01-30T01:06:52;102491.75;;;3.95;75.01
76201;BME280;64981;52.930;9.266;2024-01-30T01:09:17;102491.53;;;4.00;74.73
76201;BME280;64981;52.930;9.266;2024-01-30T01:11:43;102502.00;;;4.17;73.66
76201;BME280;64981;52.930;9.266;2024-01-30T01:14:08;102497.84;;;4.13;73.85
76201;BME280;64981;52.930;9.266;2024-01-30T01:16:34;102490.69;;;3.99;74.83
76201;BME280;64981;52.930;9.266;2024-01-30T01:19:00;102487.91;;;4.02;74.17
76201;BME280;64981;52.930;9.266;2024-01-30T01:21:26;102494.59;;;4.08;74.38
76201;BME280;64981;52.930;9.266;2024-01-30T01:23:51;102498.75;;;4.29;73.30
76201;BME280;64981;52.930;9.266;2024-01-30T01:26:17;102490.75;;;4.32;73.10
76201;BME280;64981;52.930;9.266;2024-01-30T01:28:42;102491.06;;;4.43;72.33
76201;BME280;64981;52.930;9.266;2024-01-30T01:31:09;102490.91;;;4.12;74.54
76201;BME280;64981;52.930;9.266;2024-01-30T01:33:34;102475.69;;;4.03;74.42
76201;BME280;64981;52.930;9.266;2024-01-30T01:36:02;102479.78;;;3.91;75.07
76201;BME280;64981;52.930;9.266;2024-01-30T01:38:28;102482.91;;;4.15;74.00
76201;BME280;64981;52.930;9.266;2024-01-30T01:40:54;102475.84;;;4.17;73.86
76201;BME280;64981;52.930;9.266;2024-01-30T01:43:19;102474.38;;;4.28;73.46
76201;BME280;64981;52.930;9.266;2024-01-30T01:45:45;102469.53;;;4.21;73.44
76201;BME280;64981;52.930;9.266;2024-01-30T01:48:11;102476.53;;;4.37;73.15
76201;BME280;64981;52.930;9.266;2024-01-30T01:50:38;102462.47;;;4.23;73.59
76201;BME280;64981;52.930;9.266;2024-01-30T01:53:07;102458.13;;;4.39;73.00
76201;BME280;64981;52.930;9.266;2024-01-30T01:55:35;102455.75;;;4.17;73.85
76201;BME280;64981;52.930;9.266;2024-01-30T01:58:01;102457.97;;;4.25;73.49
76201;BME280;64981;52.930;9.266;2024-01-30T02:00:28;102462.06;;;4.48;72.86
76201;BME280;64981;52.930;9.266;2024-01-30T02:02:54;102441.81;;;4.34;72.97
76201;BME280;64981;52.930;9.266;2024-01-30T02:05:21;102443.06;;;4.44;72.63
76201;BME280;64981;52.930;9.266;2024-01-30T02:07:46;102439.97;;;4.36;73.23
76201;BME280;64981;52.930;9.266;2024-01-30T02:10:12;102436.75;;;4.48;72.65
76201;BME280;64981;52.930;9.266;2024-01-30T02:12:40;102437.34;;;4.36;73.27
76201;BME280;64981;52.930;9.266;2024-01-30T02:15:05;102438.06;;;4.39;73.22
76201;BME280;64981;52.930;9.266;2024-01-30T02:17:32;102433.16;;;4.16;74.18
76201;BME280;64981;52.930;9.266;2024-01-30T02:19:58;102428.03;;;4.30;73.83
76201;BME280;64981;52.930;9.266;2024-01-30T02:22:24;102431.00;;;4.41;73.92
76201;BME280;64981;52.930;9.266;2024-01-30T02:24:49;102432.69;;;4.58;72.89
76201;BME280;64981;52.930;9.266;2024-01-30T02:27:15;102435.41;;;4.72;72.53
76201;BME280;64981;52.930;9.266;2024-01-30T02:29:41;102440.31;;;4.78;72.50
76201;BME280;64981;52.930;9.266;2024-01-30T02:32:07;102434.31;;;4.61;73.35
76201;BME280;64981;52.930;9.266;2024-01-30T02:34:33;102428.97;;;4.47;74.59
76201;BME280;64981;52.930;9.266;2024-01-30T02:36:59;102421.66;;;4.36;74.43
76201;BME280;64981;52.930;9.266;2024-01-30T02:39:24;102422.59;;;4.18;75.69
76201;BME280;64981;52.930;9.266;2024-01-30T02:41:50;102424.84;;;4.25;75.80
76201;BME280;64981;52.930;9.266;2024-01-30T02:44:16;102416.69;;;4.14;75.47
76201;BME280;64981;52.930;9.266;2024-01-30T02:46:41;102425.16;;;4.19;76.08
76201;BME280;64981;52.930;9.266;2024-01-30T02:49:07;102414.44;;;4.24;74.87
76201;BME280;64981;52.930;9.266;2024-01-30T02:51:33;102410.22;;;4.21;74.89
76201;BME280;64981;52.930;9.266;2024-01-30T02:53:59;102420.09;;;4.16;76.52
76201;BME280;64981;52.930;9.266;2024-01-30T02:56:24;102407.88;;;4.17;75.68
76201;BME280;64981;52.930;9.266;2024-01-30T02:58:50;102406.66;;;4.07;75.96
76201;BME280;64981;52.930;9.266;2024-01-30T03:01:15;102410.22;;;4.21;75.54
76201;BME280;64981;52.930;9.266;2024-01-30T03:03:41;102403.66;;;4.30;75.31
76201;BME280;64981;52.930;9.266;2024-01-30T03:06:08;102394.84;;;4.15;75.87
76201;BME280;64981;52.930;9.266;2024-01-30T03:08:34;102396.28;;;4.21;75.80
76201;BME280;64981;52.930;9.266;2024-01-30T03:11:00;102387.75;;;4.17;75.90
76201;BME280;64981;52.930;9.266;2024-01-30T03:13:26;102389.13;;;4.24;75.59
76201;BME280;64981;52.930;9.266;2024-01-30T03:15:51;102388.78;;;4.15;75.64
76201;BME280;64981;52.930;9.266;2024-01-30T03:18:17;102387.88;;;4.31;75.19
76201;BME280;64981;52.930;9.266;2024-01-30T03:20:43;102386.47;;;4.09;76.33
76201;BME280;64981;52.930;9.266;2024-01-30T03:23:08;102375.63;;;4.16;75.89
76201;BME280;64981;52.930;9.266;2024-01-30T03:25:34;102376.16;;;4.23;75.69
76201;BME280;64981;52.930;9.266;2024-01-30T03:27:59;102381.97;;;4.28;75.77
76201;BME280;64981;52.930;9.266;2024-01-30T03:30:25;102375.09;;;4.42;74.98
76201;BME280;64981;52.930;9.266;2024-01-30T03:32:51;102370.75;;;4.26;75.66
76201;BME280;64981;52.930;9.266;2024-01-30T03:35:16;102369.78;;;4.44;74.78
76201;BME280;64981;52.930;9.266;2024-01-30T03:37:42;102365.75;;;4.38;75.00
76201;BME280;64981;52.930;9.266;2024-01-30T03:40:08;102382.09;;;4.42;75.09
76201;BME280;64981;52.930;9.266;2024-01-30T03:42:33;102379.25;;;4.47;75.04
76201;BME280;64981;52.930;9.266;2024-01-30T03:44:59;102373.59;;;4.38;75.61
76201;BME280;64981;52.930;9.266;2024-01-30T03:47:24;102380.25;;;4.11;76.89
76201;BME280;64981;52.930;9.266;2024-01-30T03:49:50;102371.53;;;4.11;77.48
76201;BME280;64981;52.930;9.266;2024-01-30T03:52:17;102375.31;;;4.22;76.71
76201;BME280;64981;52.930;9.266;2024-01-30T03:54:42;102372.19;;;4.31;76.79
76201;BME280;64981;52.930;9.266;2024-01-30T03:57:08;102377.88;;;4.39;76.27
76201;BME280;64981;52.930;9.266;2024-01-30T03:59:33;102372.41;;;4.44;76.39
76201;BME280;64981;52.930;9.266;2024-01-30T04:02:00;102373.00;;;4.49;76.14
76201;BME280;64981;52.930;9.266;2024-01-30T04:04:25;102355.88;;;4.43;75.29
76201;BME280;64981;52.930;9.266;2024-01-30T04:06:51;102367.00;;;4.47;76.20
76201;BME280;64981;52.930;9.266;2024-01-30T04:09:16;102370.03;;;4.39;75.96
76201;BME280;64981;52.930;9.266;2024-01-30T04:11:42;102356.94;;;4.39;76.25
76201;BME280;64981;52.930;9.266;2024-01-30T04:14:09;102360.34;;;4.09;78.04
76201;BME280;64981;52.930;9.266;2024-01-30T04:16:34;102362.72;;;4.13;77.94
76201;BME280;64981;52.930;9.266;2024-01-30T04:19:00;102361.22;;;4.25;77.09
76201;BME280;64981;52.930;9.266;2024-01-30T04:21:25;102363.28;;;4.35;76.43
76201;BME280;64981;52.930;9.266;2024-01-30T04:23:51;102365.94;;;4.34;76.46
76201;BME280;64981;52.930;9.266;2024-01-30T04:26:17;102355.44;;;4.35;76.22
76201;BME280;64981;52.930;9.266;2024-01-30T04:28:44;102359.56;;;4.55;75.04
76201;BME280;64981;52.930;9.266;2024-01-30T04:31:10;102368.03;;;4.60;75.14
76201;BME280;64981;52.930;9.266;2024-01-30T04:33:36;102366.50;;;4.56;75.57
76201;BME280;64981;52.930;9.266;2024-01-30T04:36:02;102358.72;;;4.70;74.53
76201;BME280;64981;52.930;9.266;2024-01-30T04:38:28;102373.63;;;4.54;75.85
76201;BME280;64981;52.930;9.266;2024-01-30T04:40:54;102365.47;;;4.43;76.11
76201;BME280;64981;52.930;9.266;2024-01-30T04:43:19;102363.72;;;4.43;76.03
76201;BME280;64981;52.930;9.266;2024-01-30T04:45:45;102359.41;;;4.42;76.31
76201;BME280;64981;52.930;9.266;2024-01-30T04:48:10;102354.44;;;4.21;77.08
76201;BME280;64981;52.930;9.266;2024-01-30T04:50:36;102356.06;;;4.23;76.48
76201;BME280;64981;52.930;9.266;2024-01-30T04:53:02;102354.94;;;4.45;76.25
76201;BME280;64981;52.930;9.266;2024-01-30T04:55:27;102351.03;;;4.36;76.82
76201;BME280;64981;52.930;9.266;2024-01-30T04:57:53;102358.44;;;4.28;77.29
76201;BME280;64981;52.930;9.266;2024-01-30T05:00:19;102345.34;;;4.28;77.33
76201;BME280;64981;52.930;9.266;2024-01-30T05:02:44;102352.41;;;4.59;75.89
76201;BME280;64981;52.930;9.266;2024-01-30T05:05:10;102341.03;;;4.60;75.69
76201;BME280;64981;52.930;9.266;2024-01-30T05:07:36;102346.59;;;4.54;76.41
76201;BME280;64981;52.930;9.266;2024-01-30T05:10:02;102348.44;;;4.67;75.85
76201;BME280;64981;52.930;9.266;2024-01-30T05:12:28;102349.44;;;4.65;76.15
76201;BME280;64981;52.930;9.266;2024-01-30T05:14:54;102344.66;;;4.57;76.45
76201;BME280;64981;52.930;9.266;2024-01-30T05:17:20;102340.69;;;4.66;76.13
76201;BME280;64981;52.930;9.266;2024-01-30T05:19:45;102348.25;;;4.55;77.11
76201;BME280;64981;52.930;9.266;2024-01-30T05:22:11;102348.59;;;4.49;77.13
76201;BME280;64981;52.930;9.266;2024-01-30T05:24:41;102343.53;;;4.46;77.37
76201;BME280;64981;52.930;9.266;2024-01-30T05:27:08;102338.75;;;4.54;77.08
76201;BME280;64981;52.930;9.266;2024-01-30T05:29:33;102352.56;;;4.56;77.20
76201;BME280;64981;52.930;9.266;2024-01-30T05:31:59;102337.50;;;4.61;76.75
76201;BME280;64981;52.930;9.266;2024-01-30T05:34:24;102351.31;;;4.63;77.35
76201;BME280;64981;52.930;9.266;2024-01-30T05:36:50;102344.22;;;4.65;76.71
76201;BME280;64981;52.930;9.266;2024-01-30T05:39:16;102347.28;;;4.57;77.71
76201;BME280;64981;52.930;9.266;2024-01-30T05:41:41;102353.78;;;4.66;77.54
76201;BME280;64981;52.930;9.266;2024-01-30T05:44:07;102347.69;;;4.50;78.50
76201;BME280;64981;52.930;9.266;2024-01-30T05:46:33;102348.78;;;4.77;77.37
76201;BME280;64981;52.930;9.266;2024-01-30T05:48:59;102352.22;;;4.77;77.32
76201;BME280;64981;52.930;9.266;2024-01-30T05:51:24;102340.50;;;4.69;78.11
76201;BME280;64981;52.930;9.266;2024-01-30T05:53:50;102343.72;;;4.58;78.27
76201;BME280;64981;52.930;9.266;2024-01-30T05:56:16;102333.91;;;4.77;77.73
76201;BME280;64981;52.930;9.266;2024-01-30T05:58:41;102337.13;;;4.82;77.39
76201;BME280;64981;52.930;9.266;2024-01-30T06:01:08;102333.75;;;4.80;77.24
76201;BME280;64981;52.930;9.266;2024-01-30T06:03:34;102334.88;;;4.76;77.55
76201;BME280;64981;52.930;9.266;2024-01-30T06:06:00;102335.94;;;4.88;76.89
76201;BME280;64981;52.930;9.266;2024-01-30T06:08:26;102338.28;;;4.92;76.92
76201;BME280;64981;52.930;9.266;2024-01-30T06:10:52;102337.47;;;4.76;77.45
76201;BME280;64981;52.930;9.266;2024-01-30T06:13:17;102344.38;;;4.62;78.66
76201;BME280;64981;52.930;9.266;2024-01-30T06:15:43;102340.28;;;4.73;77.93
76201;BME280;64981;52.930;9.266;2024-01-30T06:18:09;102340.50;;;4.69;78.48
76201;BME280;64981;52.930;9.266;2024-01-30T06:20:35;102337.56;;;4.75;78.29
76201;BME280;64981;52.930;9.266;2024-01-30T06:23:00;102336.63;;;4.60;79.00
76201;BME280;64981;52.930;9.266;2024-01-30T06:25:26;102338.06;;;4.81;78.27
76201;BME280;64981;52.930;9.266;2024-01-30T06:27:52;102330.88;;;4.85;77.85
76201;BME280;64981;52.930;9.266;2024-01-30T06:30:18;102328.31;;;4.83;77.89
76201;BME280;64981;52.930;9.266;2024-01-30T06:32:43;102326.03;;;4.93;77.75
76201;BME280;64981;52.930;9.266;2024-01-30T06:35:09;102327.63;;;4.95;77.57
76201;BME280;64981;52.930;9.266;2024-01-30T06:37:36;102316.25;;;4.81;78.16
76201;BME280;64981;52.930;9.266;2024-01-30T06:40:02;102314.38;;;4.98;77.13
76201;BME280;64981;52.930;9.266;2024-01-30T06:42:30;102323.09;;;4.83;78.02
76201;BME280;64981;52.930;9.266;2024-01-30T06:44:55;102328.06;;;5.04;77.00
76201;BME280;64981;52.930;9.266;2024-01-30T06:47:21;102327.81;;;4.77;78.05
76201;BME280;64981;52.930;9.266;2024-01-30T06:49:47;102330.69;;;4.88;77.93
76201;BME280;64981;52.930;9.266;2024-01-30T06:52:12;102333.16;;;4.91;78.10
76201;BME280;64981;52.930;9.266;2024-01-30T06:54:38;102325.63;;;5.01;77.23
76201;BME280;64981;52.930;9.266;2024-01-30T06:57:05;102332.06;;;4.95;78.03
76201;BME280;64981;52.930;9.266;2024-01-30T06:59:34;102330.69;;;4.88;78.18
76201;BME280;64981;52.930;9.266;2024-01-30T07:02:00;102345.22;;;4.93;78.00
76201;BME280;64981;52.930;9.266;2024-01-30T07:04:26;102333.47;;;5.01;77.77
76201;BME280;64981;52.930;9.266;2024-01-30T07:06:51;102326.28;;;5.04;77.40
76201;BME280;64981;52.930;9.266;2024-01-30T07:09:18;102330.06;;;4.98;77.82
76201;BME280;64981;52.930;9.266;2024-01-30T07:11:53;102320.56;;;4.97;77.78
76201;BME280;64981;52.930;9.266;2024-01-30T07:14:20;102326.06;;;5.23;76.83
76201;BME280;64981;52.930;9.266;2024-01-30T07:16:46;102327.38;;;5.30;76.67
76201;BME280;64981;52.930;9.266;2024-01-30T07:19:12;102317.19;;;5.25;76.36
76201;BME280;64981;52.930;9.266;2024-01-30T07:21:37;102328.63;;;5.38;76.33
76201;BME280;64981;52.930;9.266;2024-01-30T07:24:06;102312.00;;;5.24;76.65
76201;BME280;64981;52.930;9.266;2024-01-30T07:26:31;102317.31;;;5.08;77.73
76201;BME280;64981;52.930;9.266;2024-01-30T07:28:57;102323.69;;;5.18;77.63
76201;BME280;64981;52.930;9.266;2024-01-30T07:31:22;102320.53;;;5.27;77.20
76201;BME280;64981;52.930;9.266;2024-01-30T07:33:48;102314.47;;;5.27;77.36
76201;BME280;64981;52.930;9.266;2024-01-30T07:36:14;102307.97;;;5.18;77.65
76201;BME280;64981;52.930;9.266;2024-01-30T07:38:39;102303.06;;;5.28;77.25
76201;BME280;64981;52.930;9.266;2024-01-30T07:41:05;102296.25;;;5.39;77.01
76201;BME280;64981;52.930;9.266;2024-01-30T07:43:31;102293.00;;;5.50;76.46
76201;BME280;64981;52.930;9.266;2024-01-30T07:45:57;102309.28;;;5.41;76.78
76201;BME280;64981;52.930;9.266;2024-01-30T07:48:22;102304.22;;;5.38;77.20
76201;BME280;64981;52.930;9.266;2024-01-30T07:50:48;102298.88;;;5.39;77.40
76201;BME280;64981;52.930;9.266;2024-01-30T07:53:13;102296.72;;;5.46;77.25
76201;BME280;64981;52.930;9.266;2024-01-30T07:55:39;102292.38;;;5.61;76.63
76201;BME280;64981;52.930;9.266;2024-01-30T07:58:04;102303.31;;;5.67;76.50
76201;BME280;64981;52.930;9.266;2024-01-30T08:00:30;102306.94;;;5.65;77.15
76201;BME280;64981;52.930;9.266;2024-01-30T08:02:56;102294.06;;;5.76;76.85
76201;BME280;64981;52.930;9.266;2024-01-30T08:05:22;102297.81;;;5.86;76.33
76201;BME280;64981;52.930;9.266;2024-01-30T08:07:49;102291.78;;;5.84;75.77
76201;BME280;64981;52.930;9.266;2024-01-30T08:10:15;102291.50;;;6.02;75.42
76201;BME280;64981;52.930;9.266;2024-01-30T08:12:41;102292.84;;;5.81;76.23
76201;BME280;64981;52.930;9.266;2024-01-30T08:15:07;102284.88;;;5.97;75.71
76201;BME280;64981;52.930;9.266;2024-01-30T08:17:33;102291.69;;;5.99;75.55
76201;BME280;64981;52.930;9.266;2024-01-30T08:19:59;102295.63;;;6.07;75.42
76201;BME280;64981;52.930;9.266;2024-01-30T08:22:25;102283.56;;;6.04;75.40
76201;BME280;64981;52.930;9.266;2024-01-30T08:24:50;102283.81;;;5.99;75.30
76201;BME280;64981;52.930;9.266;2024-01-30T08:27:16;102287.66;;;6.22;74.43
76201;BME280;64981;52.930;9.266;2024-01-30T08:29:42;102286.34;;;6.15;74.95
76201;BME280;64981;52.930;9.266;2024-01-30T08:32:07;102288.41;;;6.10;75.11
76201;BME280;64981;52.930;9.266;2024-01-30T08:34:34;102285.09;;;6.21;75.04
76201;BME280;64981;52.930;9.266;2024-01-30T08:36:59;102279.50;;;6.27;74.81
76201;BME280;64981;52.930;9.266;2024-01-30T08:39:25;102284.75;;;6.27;74.97
76201;BME280;64981;52.930;9.266;2024-01-30T08:41:51;102277.41;;;6.32;74.68
76201;BME280;64981;52.930;9.266;2024-01-30T08:44:17;102281.53;;;6.36;74.57
76201;BME280;64981;52.930;9.266;2024-01-30T08:46:44;102281.69;;;6.47;74.59
76201;BME280;64981;52.930;9.266;2024-01-30T08:49:10;102283.78;;;6.42;74.61
76201;BME280;64981;52.930;9.266;2024-01-30T08:51:36;102270.34;;;6.46;74.70
76201;BME280;64981;52.930;9.266;2024-01-30T08:54:02;102277.53;;;6.57;74.03
76201;BME280;64981;52.930;9.266;2024-01-30T08:56:28;102276.75;;;6.69;73.58
76201;BME280;64981;52.930;9.266;2024-01-30T08:58:53;102273.84;;;6.74;73.36
76201;BME280;64981;52.930;9.266;2024-01-30T09:01:19;102277.66;;;6.68;73.95
76201;BME280;64981;52.930;9.266;2024-01-30T09:03:45;102273.72;;;6.75;73.70
76201;BME280;64981;52.930;9.266;2024-01-30T09:06:12;102278.97;;;6.89;73.07
76201;BME280;64981;52.930;9.266;2024-01-30T09:08:38;102275.16;;;6.93;72.79
76201;BME280;64981;52.930;9.266;2024-01-30T09:11:13;102283.50;;;7.13;72.52
76201;BME280;64981;52.930;9.266;2024-01-30T09:13:38;102287.84;;;6.87;73.13
76201;BME280;64981;52.930;9.266;2024-01-30T09:16:05;102291.94;;;7.18;72.21
76201;BME280;64981;52.930;9.266;2024-01-30T09:18:31;102279.56;;;7.32;71.45
76201;BME280;64981;52.930;9.266;2024-01-30T09:20:56;102292.38;;;7.37;71.63
76201;BME280;64981;52.930;9.266;2024-01-30T09:23:22;102288.09;;;7.36;71.38
76201;BME280;64981;52.930;9.266;2024-01-30T09:25:48;102260.53;;;7.41;70.51
76201;BME280;64981;52.930;9.266;2024-01-30T09:28:14;102286.91;;;7.90;69.68
76201;BME280;64981;52.930;9.266;2024-01-30T09:30:39;102290.19;;;7.69;69.95
76201;BME280;64981;52.930;9.266;2024-01-30T09:33:06;102279.00;;;7.90;69.45
76201;BME280;64981;52.930;9.266;2024-01-30T09:35:32;102282.63;;;7.89;69.81
76201;BME280;64981;52.930;9.266;2024-01-30T09:37:59;102282.06;;;7.97;69.53
76201;BME280;64981;52.930;9.266;2024-01-30T09:40:25;102291.31;;;8.02;69.30
76201;BME280;64981;52.930;9.266;2024-01-30T09:42:51;102293.53;;;8.45;68.01
76201;BME280;64981;52.930;9.266;2024-01-30T09:45:18;102287.16;;;8.60;67.41
76201;BME280;64981;52.930;9.266;2024-01-30T09:47:45;102280.25;;;8.46;67.76
76201;BME280;64981;52.930;9.266;2024-01-30T09:50:13;102297.28;;;8.66;67.82
76201;BME280;64981;52.930;9.266;2024-01-30T09:52:40;102277.31;;;8.98;66.25
76201;BME280;64981;52.930;9.266;2024-01-30T09:55:07;102280.56;;;9.13;65.71
76201;BME280;64981;52.930;9.266;2024-01-30T09:57:34;102276.63;;;9.07;65.78
76201;BME280;64981;52.930;9.266;2024-01-30T10:00:00;102273.03;;;9.08;65.98
76201;BME280;64981;52.930;9.266;2024-01-30T10:02:26;102269.94;;;9.25;65.72
76201;BME280;64981;52.930;9.266;2024-01-30T10:04:52;102280.88;;;9.21;65.81
76201;BME280;64981;52.930;9.266;2024-01-30T10:07:18;102278.81;;;9.24;65.47
76201;BME280;64981;52.930;9.266;2024-01-30T10:09:45;102279.47;;;9.50;64.78
76201;BME280;64981;52.930;9.266;2024-01-30T10:12:12;102281.75;;;9.55;64.26
76201;BME280;64981;52.930;9.266;2024-01-30T10:14:39;102281.03;;;9.53;65.04
76201;BME280;64981;52.930;9.266;2024-01-30T10:17:08;102262.41;;;9.43;65.27
76201;BME280;64981;52.930;9.266;2024-01-30T10:19:37;102271.63;;;9.27;65.73
76201;BME280;64981;52.930;9.266;2024-01-30T10:22:04;102254.97;;;9.37;65.46
76201;BME280;64981;52.930;9.266;2024-01-30T10:24:30;102260.59;;;9.21;66.28
76201;BME280;64981;52.930;9.266;2024-01-30T10:26:56;102263.16;;;9.56;65.19
76201;BME280;64981;52.930;9.266;2024-01-30T10:29:22;102269.75;;;9.51;65.01
76201;BME280;64981;52.930;9.266;2024-01-30T10:32:02;102265.66;;;9.47;65.50
76201;BME280;64981;52.930;9.266;2024-01-30T10:34:28;102247.53;;;9.20;66.61
76201;BME280;64981;52.930;9.266;2024-01-30T10:37:07;102262.56;;;9.42;66.15
76201;BME280;64981;52.930;9.266;2024-01-30T10:39:38;102264.91;;;9.11;66.67
76201;BME280;64981;52.930;9.266;2024-01-30T10:42:05;102257.16;;;9.43;66.32
76201;BME280;64981;52.930;9.266;2024-01-30T10:44:48;102265.56;;;9.59;66.10
76201;BME280;64981;52.930;9.266;2024-01-30T10:47:19;102262.88;;;9.26;66.84
76201;BME280;64981;52.930;9.266;2024-01-30T10:49:47;102253.13;;;9.15;67.47
76201;BME280;64981;52.930;9.266;2024-01-30T10:52:13;102263.34;;;9.20;67.13
76201;BME280;64981;52.930;9.266;2024-01-30T10:54:40;102255.50;;;9.64;65.83
76201;BME280;64981;52.930;9.266;2024-01-30T10:57:07;102254.19;;;9.48;66.43
76201;BME280;64981;52.930;9.266;2024-01-30T10:59:35;102250.31;;;9.30;66.94
76201;BME280;64981;52.930;9.266;2024-01-30T11:02:02;102251.63;;;9.35;67.04
76201;BME280;64981;52.930;9.266;2024-01-30T11:04:37;102249.47;;;9.40;67.34
76201;BME280;64981;52.930;9.266;2024-01-30T11:07:13;102256.56;;;9.51;66.88
76201;BME280;64981;52.930;9.266;2024-01-30T11:09:39;102254.66;;;9.53;67.23
76201;BME280;64981;52.930;9.266;2024-01-30T11:12:04;102255.63;;;9.63;66.91
76201;BME280;64981;52.930;9.266;2024-01-30T11:14:30;102251.69;;;9.79;66.54
76201;BME280;64981;52.930;9.266;2024-01-30T11:16:57;102256.25;;;9.77;66.87
76201;BME280;64981;52.930;9.266;2024-01-30T11:19:24;102249.03;;;9.68;66.98
76201;BME280;64981;52.930;9.266;2024-01-30T11:21:53;102256.13;;;9.68;66.66
76201;BME280;64981;52.930;9.266;2024-01-30T11:24:20;102241.00;;;9.70;67.09
76201;BME280;64981;52.930;9.266;2024-01-30T11:26:49;102258.97;;;10.09;66.27
76201;BME280;64981;52.930;9.266;2024-01-30T11:29:17;102259.00;;;10.20;65.94
76201;BME280;64981;52.930;9.266;2024-01-30T11:31:54;102265.78;;;10.45;64.97
76201;BME280;64981;52.930;9.266;2024-01-30T11:34:21;102260.59;;;10.44;65.14
76201;BME280;64981;52.930;9.266;2024-01-30T11:36:52;102250.03;;;10.55;64.99
76201;BME280;64981;52.930;9.266;2024-01-30T11:39:20;102245.94;;;10.62;64.41
76201;BME280;64981;52.930;9.266;2024-01-30T11:41:50;102235.97;;;10.86;63.81
76201;BME280;64981;52.930;9.266;2024-01-30T11:44:17;102245.69;;;10.85;64.48
76201;BME280;64981;52.930;9.266;2024-01-30T11:46:43;102242.09;;;10.87;64.05
76201;BME280;64981;52.930;9.266;2024-01-30T11:49:10;102236.13;;;10.73;64.42
76201;BME280;64981;52.930;9.266;2024-01-30T11:51:35;102247.19;;;10.99;63.97
76201;BME280;64981;52.930;9.266;2024-01-30T11:54:01;102244.69;;;11.18;63.26
76201;BME280;64981;52.930;9.266;2024-01-30T11:56:27;102244.72;;;11.49;62.45
76201;BME280;64981;52.930;9.266;2024-01-30T11:58:52;102229.56;;;11.09;63.58
76201;BME280;64981;52.930;9.266;2024-01-30T12:01:18;102223.88;;;11.34;63.24
76201;BME280;64981;52.930;9.266;2024-01-30T12:03:49;102226.63;;;11.23;63.95
76201;BME280;64981;52.930;9.266;2024-01-30T12:06:15;102221.25;;;11.34;63.39
76201;BME280;64981;52.930;9.266;2024-01-30T12:08:41;102216.03;;;11.23;63.43
76201;BME280;64981;52.930;9.266;2024-01-30T12:11:07;102217.78;;;11.34;63.14
76201;BME280;64981;52.930;9.266;2024-01-30T12:13:34;102212.59;;;11.32;63.19
76201;BME280;64981;52.930;9.266;2024-01-30T12:16:00;102214.28;;;11.13;63.44
76201;BME280;64981;52.930;9.266;2024-01-30T12:18:26;102222.69;;;10.97;64.46
76201;BME280;64981;52.930;9.266;2024-01-30T12:20:59;102223.38;;;11.20;64.25
76201;BME280;64981;52.930;9.266;2024-01-30T12:23:27;102221.69;;;11.19;64.44
76201;BME280;64981;52.930;9.266;2024-01-30T12:25:52;102221.44;;;11.22;64.16
76201;BME280;64981;52.930;9.266;2024-01-30T12:28:20;102227.72;;;11.21;64.52
76201;BME280;64981;52.930;9.266;2024-01-30T12:30:46;102239.13;;;11.42;63.81
76201;BME280;64981;52.930;9.266;2024-01-30T12:33:19;102239.91;;;11.33;63.78
76201;BME280;64981;52.930;9.266;2024-01-30T12:35:46;102235.25;;;11.25;64.37
76201;BME280;64981;52.930;9.266;2024-01-30T12:38:14;102241.00;;;11.10;64.85
76201;BME280;64981;52.930;9.266;2024-01-30T12:40:39;102239.16;;;11.21;64.51
76201;BME280;64981;52.930;9.266;2024-01-30T12:43:05;102243.59;;;11.21;64.68
76201;BME280;64981;52.930;9.266;2024-01-30T12:45:31;102243.97;;;11.16;64.95
76201;BME280;64981;52.930;9.266;2024-01-30T12:47:56;102255.47;;;11.06;65.18
76201;BME280;64981;52.930;9.266;2024-01-30T12:50:23;102244.03;;;11.05;65.28
76201;BME280;64981;52.930;9.266;2024-01-30T12:52:49;102239.19;;;11.10;65.34
76201;BME280;64981;52.930;9.266;2024-01-30T12:55:15;102239.63;;;10.95;65.93